createdAt,value
2023-03-15T00:01:28.828Z,4.30
2023-03-15T00:03:57.038Z,9.73
2023-03-15T00:06:25.415Z,6.83
2023-03-15T00:08:56.722Z,10.73
2023-03-15T00:11:25.174Z,12.87
2023-03-15T00:13:53.133Z,7.57
2023-03-15T00:16:27.362Z,12.03
2023-03-15T00:18:57.244Z,4.40
2023-03-15T00:21:25.858Z,10.53
2023-03-15T00:23:54.305Z,10.93
2023-03-15T00:26:22.870Z,9.03
2023-03-15T00:28:51.098Z,13.43
2023-03-15T00:31:24.210Z,7.97
2023-03-15T00:33:53.729Z,11.67
2023-03-15T00:36:26.410Z,14.37
2023-03-15T00:38:57.721Z,13.03
2023-03-15T00:41:26.677Z,10.33
2023-03-15T00:43:55.513Z,9.30
2023-03-15T00:46:24.208Z,15.77
2023-03-15T00:48:53.161Z,9.23
2023-03-15T00:51:24.230Z,8.03
2023-03-15T00:53:55.848Z,10.43
2023-03-15T00:56:27.040Z,13.20
2023-03-15T00:58:55.505Z,8.10
2023-03-15T01:01:26.498Z,8.43
2023-03-15T01:04:21.017Z,12.03
2023-03-15T01:06:52.762Z,8.37
2023-03-15T01:09:22.314Z,7.80
2023-03-15T01:11:51.981Z,4.83
2023-03-15T01:14:20.082Z,11.93
2023-03-15T01:16:49.193Z,8.70
2023-03-15T01:19:18.537Z,5.93
2023-03-15T01:21:48.309Z,7.67
2023-03-15T01:24:20.808Z,8.83
2023-03-15T01:26:54.173Z,10.20
2023-03-15T01:29:22.722Z,7.97
2023-03-15T01:31:50.872Z,7.83
2023-03-15T01:34:19.401Z,7.43
2023-03-15T01:36:51.173Z,5.87
2023-03-15T01:39:19.921Z,6.20
2023-03-15T01:41:48.135Z,6.93
2023-03-15T01:44:20.874Z,8.73
2023-03-15T01:46:50.792Z,7.00
2023-03-15T01:49:28.200Z,7.63
2023-03-15T01:51:59.492Z,8.00
2023-03-15T01:54:38.446Z,8.97
2023-03-15T01:57:09.811Z,8.40
2023-03-15T01:59:46.796Z,11.50
2023-03-15T02:02:15.126Z,5.53
2023-03-15T02:04:47.968Z,4.27
2023-03-15T02:07:19.756Z,4.40
2023-03-15T02:09:55.823Z,7.17
2023-03-15T02:12:23.983Z,3.77
2023-03-15T02:14:54.733Z,3.73
2023-03-15T02:17:34.521Z,4.03
2023-03-15T02:20:13.547Z,3.70
2023-03-15T02:22:53.760Z,3.17
2023-03-15T02:25:31.356Z,3.63
2023-03-15T02:28:02.743Z,5.07
2023-03-15T02:30:31.305Z,2.23
2023-03-15T02:33:01.154Z,6.63
2023-03-15T02:35:32.079Z,2.50
2023-03-15T02:38:03.102Z,3.00
2023-03-15T02:40:33.086Z,4.03
2023-03-15T02:43:09.210Z,3.07
2023-03-15T02:45:39.329Z,6.07
2023-03-15T02:48:11.235Z,4.27
2023-03-15T02:50:39.591Z,3.70
2023-03-15T02:53:08.546Z,3.10
2023-03-15T02:55:37.344Z,5.73
2023-03-15T02:58:08.795Z,6.13
2023-03-15T03:00:37.007Z,5.73
2023-03-15T03:03:05.879Z,5.03
2023-03-15T03:05:34.018Z,5.10
2023-03-15T03:08:02.743Z,3.63
2023-03-15T03:10:30.996Z,12.03
2023-03-15T03:13:02.169Z,4.70
2023-03-15T03:15:37.860Z,6.13
2023-03-15T03:18:06.035Z,7.20
2023-03-15T03:20:34.389Z,6.97
2023-03-15T03:23:06.224Z,5.70
2023-03-15T03:25:36.556Z,4.33
2023-03-15T03:28:05.588Z,9.13
2023-03-15T03:30:37.827Z,5.30
2023-03-15T03:33:07.652Z,7.63
2023-03-15T03:35:36.209Z,6.10
2023-03-15T03:38:07.000Z,5.13
2023-03-15T03:40:40.385Z,5.63
2023-03-15T03:43:10.472Z,4.57
2023-03-15T03:45:40.827Z,4.03
2023-03-15T03:48:10.373Z,7.20
2023-03-15T03:50:39.357Z,5.60
2023-03-15T03:53:11.834Z,10.20
2023-03-15T03:55:42.586Z,6.50
2023-03-15T03:58:11.013Z,8.80
2023-03-15T04:00:46.456Z,5.40
2023-03-15T04:03:15.011Z,7.33
2023-03-15T04:05:47.840Z,9.47
2023-03-15T04:08:21.196Z,5.70
2023-03-15T04:10:56.415Z,6.80
2023-03-15T04:13:28.017Z,7.73
2023-03-15T04:15:59.266Z,10.93
2023-03-15T04:18:31.432Z,12.63
2023-03-15T04:21:00.802Z,8.90
2023-03-15T04:23:29.453Z,7.73
2023-03-15T04:26:28.248Z,7.90
2023-03-15T04:29:14.898Z,6.20
2023-03-15T04:32:13.383Z,11.10
2023-03-15T04:34:56.273Z,6.60
2023-03-15T04:37:52.120Z,9.50
2023-03-15T04:40:39.440Z,7.83
2023-03-15T04:43:24.199Z,7.77
2023-03-15T04:46:20.662Z,6.60
2023-03-15T04:49:19.317Z,7.87
2023-03-15T04:52:00.769Z,7.90
2023-03-15T04:54:47.410Z,5.93
2023-03-15T04:57:54.898Z,6.20
2023-03-15T05:00:42.046Z,6.33
2023-03-15T05:03:31.724Z,7.83
2023-03-15T05:06:22.100Z,5.80
2023-03-15T05:09:09.467Z,4.60
2023-03-15T05:11:56.339Z,7.23
2023-03-15T05:14:43.812Z,7.60
2023-03-15T05:17:38.456Z,3.10
2023-03-15T05:20:21.305Z,4.00
2023-03-15T05:23:13.612Z,3.30
2023-03-15T05:25:54.506Z,5.60
2023-03-15T05:28:47.466Z,5.27
2023-03-15T05:31:38.812Z,3.60
2023-03-15T05:34:27.339Z,3.83
2023-03-15T05:37:14.072Z,11.07
2023-03-15T05:40:02.734Z,6.33
2023-03-15T05:42:48.513Z,7.07
2023-03-15T05:45:37.328Z,5.33
2023-03-15T05:48:40.627Z,5.07
2023-03-15T05:51:27.545Z,6.83
2023-03-15T05:54:18.832Z,6.20
2023-03-15T05:57:03.263Z,9.57
2023-03-15T05:59:59.631Z,5.60
2023-03-15T06:02:44.144Z,5.63
2023-03-15T06:05:31.113Z,7.43
2023-03-15T06:08:03.607Z,6.23
2023-03-15T06:10:34.205Z,7.87
2023-03-15T06:13:08.677Z,7.10
2023-03-15T06:15:37.241Z,10.13
2023-03-15T06:18:07.092Z,10.40
2023-03-15T06:20:36.044Z,10.73
2023-03-15T06:23:10.627Z,11.97
2023-03-15T06:25:45.254Z,18.17
2023-03-15T06:28:16.266Z,15.10
2023-03-15T06:30:51.156Z,12.17
2023-03-15T06:33:27.088Z,16.23
2023-03-15T06:35:58.406Z,15.23
2023-03-15T06:38:26.636Z,19.73
2023-03-15T06:41:02.326Z,14.57
2023-03-15T06:43:32.494Z,14.00
2023-03-15T06:46:01.790Z,17.30
2023-03-15T06:48:33.178Z,24.83
2023-03-15T06:51:01.541Z,17.53
2023-03-15T06:53:29.573Z,15.07
2023-03-15T06:55:58.632Z,21.60
2023-03-15T06:58:28.340Z,13.47
2023-03-15T07:00:58.151Z,15.87
2023-03-15T07:03:28.326Z,14.97
2023-03-15T07:05:56.454Z,16.27
2023-03-15T07:08:26.881Z,15.10
2023-03-15T07:10:55.096Z,16.33
2023-03-15T07:13:23.080Z,19.07
2023-03-15T07:15:54.451Z,15.50
2023-03-15T07:18:24.061Z,12.40
2023-03-15T07:20:58.411Z,12.53
2023-03-15T07:23:29.022Z,16.10
2023-03-15T07:25:57.124Z,13.13
2023-03-15T07:28:26.428Z,14.67
2023-03-15T07:30:57.364Z,14.43
2023-03-15T07:33:32.349Z,17.27
2023-03-15T07:36:04.570Z,14.93
2023-03-15T07:38:33.167Z,12.37
2023-03-15T07:41:03.313Z,10.23
2023-03-15T07:43:31.851Z,9.33
2023-03-15T07:46:11.587Z,7.20
2023-03-15T07:48:41.188Z,6.53
2023-03-15T07:51:11.872Z,4.97
2023-03-15T07:53:39.980Z,7.20
2023-03-15T07:56:08.788Z,6.40
2023-03-15T07:58:36.824Z,8.33
2023-03-15T08:01:05.383Z,9.37
2023-03-15T08:03:33.622Z,6.50
2023-03-15T08:06:03.469Z,6.20
2023-03-15T08:08:33.372Z,5.17
2023-03-15T08:11:01.733Z,6.63
2023-03-15T08:13:30.128Z,9.40
2023-03-15T08:15:58.472Z,6.77
2023-03-15T08:18:28.823Z,9.73
2023-03-15T08:20:57.392Z,5.80
2023-03-15T08:23:27.286Z,8.17
2023-03-15T08:25:55.540Z,10.37
2023-03-15T08:28:24.986Z,5.17
2023-03-15T08:30:53.080Z,9.20
2023-03-15T08:33:22.162Z,8.93
2023-03-15T08:35:54.036Z,9.80
2023-03-15T08:38:28.366Z,7.40
2023-03-15T08:40:59.973Z,7.63
2023-03-15T08:43:28.469Z,6.50
2023-03-15T08:46:01.086Z,6.87
2023-03-15T08:48:31.920Z,7.67
2023-03-15T08:51:03.969Z,10.73
2023-03-15T08:53:34.610Z,8.37
2023-03-15T08:56:02.798Z,7.47
2023-03-15T08:58:31.487Z,6.90
2023-03-15T09:00:59.790Z,6.63
2023-03-15T09:03:33.090Z,11.77
2023-03-15T09:06:01.746Z,7.63
2023-03-15T09:08:29.765Z,8.47
2023-03-15T09:11:01.510Z,13.90
2023-03-15T09:13:30.442Z,10.77
2023-03-15T09:15:59.096Z,17.00
2023-03-15T09:18:27.801Z,7.70
2023-03-15T09:20:57.575Z,11.33
2023-03-15T09:23:26.512Z,11.00
2023-03-15T09:25:55.021Z,14.43
2023-03-15T09:28:25.424Z,9.67
2023-03-15T09:30:54.996Z,7.60
2023-03-15T09:33:23.367Z,11.27
2023-03-15T09:35:52.450Z,9.00
2023-03-15T09:38:22.464Z,10.33
2023-03-15T09:40:51.012Z,9.33
2023-03-15T09:43:40.927Z,12.23
2023-03-15T09:46:27.589Z,10.47
2023-03-15T09:49:00.878Z,11.50
2023-03-15T09:51:47.823Z,9.57
2023-03-15T09:54:19.616Z,12.93
2023-03-15T09:56:57.157Z,10.93
2023-03-15T09:59:31.490Z,13.37
2023-03-15T10:02:02.251Z,10.50
2023-03-15T10:04:35.462Z,10.47
2023-03-15T10:07:04.942Z,10.20
2023-03-15T10:09:35.487Z,11.23
2023-03-15T10:12:06.787Z,10.43
2023-03-15T10:14:59.716Z,11.20
2023-03-15T10:17:38.764Z,10.90
2023-03-15T10:20:13.209Z,8.23
2023-03-15T10:22:49.130Z,9.47
2023-03-15T10:25:23.532Z,11.97
2023-03-15T10:27:55.274Z,9.70
2023-03-15T10:30:27.937Z,9.57
2023-03-15T10:33:01.437Z,11.23
2023-03-15T10:35:32.408Z,6.23
2023-03-15T10:38:02.650Z,11.90
2023-03-15T10:40:44.428Z,9.33
2023-03-15T10:43:20.991Z,5.53
2023-03-15T10:46:00.013Z,10.30
2023-03-15T10:48:30.428Z,9.40
2023-03-15T10:50:59.361Z,7.03
2023-03-15T10:53:28.468Z,9.27
2023-03-15T10:56:02.122Z,5.37
2023-03-15T10:58:39.808Z,5.23
2023-03-15T11:01:14.755Z,10.43
2023-03-15T11:03:46.742Z,11.63
2023-03-15T11:06:26.993Z,5.33
2023-03-15T11:08:57.661Z,5.73
2023-03-15T11:11:27.048Z,4.03
2023-03-15T11:14:02.053Z,8.10
2023-03-15T11:16:35.899Z,10.33
2023-03-15T11:19:12.516Z,8.20
2023-03-15T11:21:44.071Z,10.83
2023-03-15T11:24:23.926Z,5.67
2023-03-15T11:26:55.393Z,7.40
2023-03-15T11:29:26.838Z,6.70
2023-03-15T11:31:59.759Z,6.00
2023-03-15T11:34:43.483Z,9.03
2023-03-15T11:37:21.765Z,5.20
2023-03-15T11:40:08.828Z,5.83
2023-03-15T11:42:56.491Z,4.87
2023-03-15T11:45:33.664Z,4.40
2023-03-15T11:48:28.876Z,8.90
2023-03-15T11:50:58.760Z,6.87
2023-03-15T11:53:33.027Z,9.40
2023-03-15T11:56:22.125Z,11.73
2023-03-15T11:59:06.596Z,7.23
2023-03-15T12:01:36.204Z,10.00
2023-03-15T12:04:46.849Z,3.43
2023-03-15T12:07:58.734Z,5.57
2023-03-15T12:10:43.416Z,9.03
2023-03-15T12:13:21.604Z,3.97
2023-03-15T12:15:50.774Z,7.23
2023-03-15T12:18:29.127Z,4.93
2023-03-15T12:21:18.686Z,6.73
2023-03-15T12:23:59.765Z,5.00
2023-03-15T12:26:36.272Z,3.53
2023-03-15T12:29:12.892Z,3.93
2023-03-15T12:31:47.402Z,4.87
2023-03-15T12:34:24.462Z,8.13
2023-03-15T12:36:58.098Z,3.23
2023-03-15T12:39:45.918Z,7.20
2023-03-15T12:42:30.820Z,3.83
2023-03-15T12:45:37.300Z,7.70
2023-03-15T12:48:28.033Z,5.10
2023-03-15T12:51:01.768Z,5.33
2023-03-15T12:53:39.850Z,3.77
2023-03-15T12:56:34.281Z,4.10
2023-03-15T12:59:11.591Z,5.80
2023-03-15T13:01:43.152Z,3.77
2023-03-15T13:04:14.288Z,3.40
2023-03-15T13:07:15.932Z,4.73
2023-03-15T13:10:08.947Z,7.50
2023-03-15T13:12:42.620Z,6.07
2023-03-15T13:15:19.752Z,2.60
2023-03-15T13:20:52.647Z,6.10
2023-03-15T13:23:29.648Z,5.93
2023-03-15T13:26:33.181Z,7.63
2023-03-15T13:29:09.568Z,5.63
2023-03-15T13:31:38.801Z,4.53
2023-03-15T13:34:16.592Z,3.37
2023-03-15T13:36:47.781Z,3.13
2023-03-15T13:39:24.681Z,3.00
2023-03-15T13:42:00.032Z,7.13
2023-03-15T13:44:30.841Z,3.23
2023-03-15T13:47:00.960Z,1.43
2023-03-15T13:49:34.321Z,6.60
2023-03-15T13:52:05.283Z,6.30
2023-03-15T13:54:35.709Z,2.60
2023-03-15T13:57:10.684Z,6.77
2023-03-15T13:59:43.785Z,3.17
2023-03-15T14:02:17.286Z,3.53
2023-03-15T14:04:52.529Z,1.93
2023-03-15T14:07:28.465Z,1.83
2023-03-15T14:10:23.487Z,7.40
2023-03-15T14:12:53.851Z,4.90
2023-03-15T14:15:25.091Z,2.33
2023-03-15T14:18:00.114Z,2.53
2023-03-15T14:20:33.953Z,2.13
2023-03-15T14:23:03.918Z,1.53
2023-03-15T14:25:36.568Z,3.13
2023-03-15T14:28:07.025Z,1.90
2023-03-15T14:30:39.119Z,2.63
2023-03-15T14:33:09.049Z,1.93
2023-03-15T14:35:46.379Z,4.67
2023-03-15T14:38:19.868Z,5.80
2023-03-15T14:40:49.171Z,6.87
2023-03-15T14:43:19.109Z,4.80
2023-03-15T14:45:49.078Z,3.80
2023-03-15T14:48:23.941Z,3.77
2023-03-15T14:50:52.135Z,4.90
2023-03-15T14:53:24.578Z,5.13
2023-03-15T14:55:54.573Z,2.80
2023-03-15T14:58:24.962Z,3.73
2023-03-15T15:00:56.301Z,2.40
2023-03-15T15:03:41.727Z,3.60
2023-03-15T15:06:12.134Z,2.67
2023-03-15T15:08:43.925Z,6.23
2023-03-15T15:11:12.858Z,5.37
2023-03-15T15:13:42.583Z,3.80
2023-03-15T15:16:11.515Z,1.97
2023-03-15T15:18:39.633Z,2.27
2023-03-15T15:21:14.712Z,4.10
2023-03-15T15:23:57.355Z,4.63
2023-03-15T15:26:30.681Z,3.57
2023-03-15T15:29:01.067Z,4.03
2023-03-15T15:31:34.018Z,3.33
2023-03-15T15:34:03.557Z,2.13
2023-03-15T15:36:35.928Z,4.13
2023-03-15T15:39:07.281Z,1.93
2023-03-15T15:41:37.279Z,4.73
2023-03-15T15:44:15.598Z,7.03
2023-03-15T15:46:43.988Z,3.20
2023-03-15T15:49:12.142Z,4.40
2023-03-15T15:51:46.116Z,8.80
2023-03-15T15:54:16.704Z,3.50
2023-03-15T15:56:50.803Z,4.03
2023-03-15T15:59:20.452Z,3.43
2023-03-15T16:02:00.011Z,8.43
2023-03-15T16:04:30.104Z,8.70
2023-03-15T16:07:02.120Z,6.20
2023-03-15T16:09:33.519Z,1.53
2023-03-15T16:12:02.726Z,3.83
2023-03-15T16:14:33.233Z,3.53
2023-03-15T16:17:02.238Z,5.70
2023-03-15T16:19:31.582Z,2.50
2023-03-15T16:22:00.111Z,3.70
2023-03-15T16:24:33.216Z,4.03
2023-03-15T16:27:04.336Z,4.90
2023-03-15T16:29:39.355Z,5.80
2023-03-15T16:32:17.895Z,6.33
2023-03-15T16:34:49.845Z,2.87
2023-03-15T16:37:22.832Z,5.10
2023-03-15T16:39:53.628Z,8.43
2023-03-15T16:42:22.354Z,3.97
2023-03-15T16:44:55.177Z,6.97
2023-03-15T16:47:24.199Z,4.80
2023-03-15T16:49:52.170Z,2.80
2023-03-15T16:52:20.837Z,3.00
2023-03-15T16:54:49.406Z,8.13
2023-03-15T16:57:21.624Z,7.73
2023-03-15T16:59:51.541Z,3.40
2023-03-15T17:02:21.384Z,3.40
2023-03-15T17:04:50.987Z,4.97
2023-03-15T17:07:20.141Z,6.23
2023-03-15T17:09:50.935Z,3.57
2023-03-15T17:12:23.572Z,4.97
2023-03-15T17:14:55.176Z,4.63
2023-03-15T17:17:25.654Z,5.40
2023-03-15T17:19:54.168Z,3.90
2023-03-15T17:22:22.992Z,2.00
2023-03-15T17:24:51.312Z,3.47
2023-03-15T17:27:33.440Z,5.90
2023-03-15T17:30:03.193Z,5.40
2023-03-15T17:32:32.643Z,7.03
2023-03-15T17:35:00.638Z,7.40
2023-03-15T17:37:34.972Z,7.50
2023-03-15T17:40:12.931Z,3.97
2023-03-15T17:42:41.133Z,5.23
2023-03-15T17:45:17.580Z,6.83
2023-03-15T17:47:46.011Z,5.10
2023-03-15T17:50:14.151Z,4.30
2023-03-15T17:52:44.406Z,5.23
2023-03-15T17:55:16.933Z,7.43
2023-03-15T17:57:54.680Z,4.00
2023-03-15T18:00:25.832Z,7.83
2023-03-15T18:02:56.368Z,4.20
2023-03-15T18:05:26.271Z,2.80
2023-03-15T18:07:59.335Z,6.97
2023-03-15T18:10:34.512Z,8.03
2023-03-15T18:13:03.838Z,4.73
2023-03-15T18:15:33.926Z,7.33
2023-03-15T18:18:03.157Z,7.27
2023-03-15T18:20:32.091Z,7.07
2023-03-15T18:23:02.061Z,8.63
2023-03-15T18:25:33.740Z,10.00
2023-03-15T18:28:02.102Z,4.43
2023-03-15T18:30:34.032Z,7.50
2023-03-15T18:33:04.008Z,5.70
2023-03-15T18:35:35.340Z,7.80
2023-03-15T18:38:04.357Z,9.87
2023-03-15T18:40:34.380Z,13.80
2023-03-15T18:43:05.749Z,10.00
2023-03-15T18:45:36.666Z,8.80
2023-03-15T18:48:06.435Z,19.53
2023-03-15T18:50:35.788Z,10.83
2023-03-15T18:53:06.191Z,15.83
2023-03-15T18:55:35.791Z,10.50
2023-03-15T18:58:04.891Z,8.80
2023-03-15T19:00:36.884Z,8.40
2023-03-15T19:03:06.644Z,8.03
2023-03-15T19:05:37.450Z,8.20
2023-03-15T19:08:05.865Z,11.07
2023-03-15T19:10:34.166Z,8.20
2023-03-15T19:13:04.683Z,11.20
2023-03-15T19:15:33.070Z,12.90
2023-03-15T19:18:03.597Z,9.20
2023-03-15T19:20:31.640Z,8.57
2023-03-15T19:23:00.807Z,9.13
2023-03-15T19:25:28.837Z,11.23
2023-03-15T19:27:58.669Z,9.90
2023-03-15T19:30:31.422Z,11.27
2023-03-15T19:33:00.720Z,13.67
2023-03-15T19:35:32.541Z,9.17
2023-03-15T19:38:02.757Z,14.70
2023-03-15T19:40:31.014Z,11.00
2023-03-15T19:42:59.169Z,8.10
2023-03-15T19:45:27.814Z,9.37
2023-03-15T19:47:58.978Z,15.00
2023-03-15T19:50:30.859Z,7.70
2023-03-15T19:53:00.575Z,6.97
2023-03-15T19:55:31.468Z,5.90
2023-03-15T19:58:00.182Z,7.03
2023-03-15T20:00:28.233Z,11.17
2023-03-15T20:02:59.846Z,12.40
2023-03-15T20:05:27.937Z,11.07
2023-03-15T20:07:56.298Z,4.20
2023-03-15T20:10:26.022Z,4.77
2023-03-15T20:12:58.799Z,3.63
2023-03-15T20:15:32.667Z,8.60
2023-03-15T20:18:01.477Z,9.27
2023-03-15T20:20:29.967Z,6.43
2023-03-15T20:22:58.830Z,7.47
2023-03-15T20:25:29.098Z,5.80
2023-03-15T20:27:58.282Z,5.43
2023-03-15T20:30:28.279Z,5.40
2023-03-15T20:32:56.867Z,15.40
2023-03-15T20:35:25.184Z,7.40
2023-03-15T20:37:57.962Z,6.87
2023-03-15T20:40:26.742Z,14.53
2023-03-15T20:42:56.890Z,11.60
2023-03-15T20:45:25.453Z,11.73
2023-03-15T20:47:53.462Z,10.43
2023-03-15T20:50:22.229Z,7.70
2023-03-15T20:52:50.396Z,9.00
2023-03-15T20:55:20.304Z,7.90
2023-03-15T20:57:48.323Z,8.80
2023-03-15T21:00:23.075Z,9.10
2023-03-15T21:02:53.471Z,7.33
2023-03-15T21:05:22.594Z,5.40
2023-03-15T21:07:51.173Z,7.50
2023-03-15T21:10:19.245Z,6.33
2023-03-15T21:12:47.721Z,5.27
2023-03-15T21:15:17.864Z,8.87
2023-03-15T21:17:49.441Z,6.87
2023-03-15T21:20:17.991Z,6.73
2023-03-15T21:22:46.499Z,6.33
2023-03-15T21:25:14.575Z,9.27
2023-03-15T21:27:42.592Z,6.13
2023-03-15T21:30:14.802Z,12.57
2023-03-15T21:32:43.284Z,6.97
2023-03-15T21:35:13.239Z,3.77
2023-03-15T21:37:41.264Z,10.67
2023-03-15T21:40:12.409Z,9.83
2023-03-15T21:42:42.934Z,6.93
2023-03-15T21:45:12.287Z,6.10
2023-03-15T21:47:40.984Z,7.13
2023-03-15T21:50:13.452Z,4.50
2023-03-15T21:52:41.876Z,6.93
2023-03-15T21:55:15.744Z,8.23
2023-03-15T21:57:45.262Z,10.97
2023-03-15T22:00:18.094Z,7.60
2023-03-15T22:02:46.725Z,7.00
2023-03-15T22:05:16.814Z,9.00
2023-03-15T22:07:44.870Z,5.87
2023-03-15T22:10:15.134Z,10.40
2023-03-15T22:12:43.423Z,8.77
2023-03-15T22:15:13.639Z,8.80
2023-03-15T22:17:45.433Z,9.23
2023-03-15T22:20:16.819Z,11.33
2023-03-15T22:22:49.829Z,11.10
2023-03-15T22:25:19.076Z,14.10
2023-03-15T22:27:47.194Z,5.57
2023-03-15T22:30:20.405Z,8.27
2023-03-15T22:32:49.891Z,9.10
2023-03-15T22:35:21.686Z,12.53
2023-03-15T22:37:56.868Z,10.93
2023-03-15T22:40:26.756Z,9.50
2023-03-15T22:42:57.810Z,7.13
2023-03-15T22:45:26.818Z,5.93
2023-03-15T22:47:55.262Z,13.37
2023-03-15T22:50:24.447Z,10.03
2023-03-15T22:52:56.351Z,8.00
2023-03-15T22:55:25.197Z,7.20
2023-03-15T22:57:54.352Z,6.80
2023-03-15T23:00:24.967Z,15.60
2023-03-15T23:02:53.369Z,9.17
2023-03-15T23:05:21.402Z,7.13
2023-03-15T23:07:50.259Z,6.03
2023-03-15T23:10:28.212Z,8.43
2023-03-15T23:12:56.608Z,9.33
2023-03-15T23:15:25.117Z,6.17
2023-03-15T23:17:55.762Z,9.10
2023-03-15T23:20:25.113Z,9.50
2023-03-15T23:22:55.960Z,7.77
2023-03-15T23:25:29.177Z,6.30
2023-03-15T23:27:57.932Z,6.87
2023-03-15T23:30:35.471Z,7.73
2023-03-15T23:33:04.220Z,6.43
2023-03-15T23:35:35.554Z,9.70
2023-03-15T23:38:04.028Z,9.40
2023-03-15T23:40:33.446Z,7.70
2023-03-15T23:43:01.874Z,5.30
2023-03-15T23:45:31.250Z,13.43
2023-03-15T23:47:59.628Z,12.77
2023-03-15T23:50:29.638Z,5.37
2023-03-15T23:53:00.390Z,7.03
2023-03-15T23:55:28.396Z,8.00
2023-03-15T23:57:58.645Z,6.90
